TAP25M LPPR-LPFR
Flight info
| Callsign | TAP25M |
|---|---|
| Flight time | 0h 51m |
| Altitude | 35000 |
| Route | MANIK DCT INBOM DCT ALAGU |
| Aircraft | A320/M-SDE3FGHIRWY/LB1 |
Departure
| Time | 2026-05-06 20:56 |
|---|---|
| Airport | Francisco de Sá Carneiro Airport (LPPR) |
Arrival
| Time | 2026-05-06 21:47 |
|---|---|
| Airport | Faro - Gago Coutinho International Airport (LPFR) |
| Time | Latitude | Longitude | Altitude | Speed | Heading |
|---|---|---|---|---|---|
| 2026-05-06 20:37 | 41.23637 | -8.67246 | 257 ft | 0 kts | 81° |
| 2026-05-06 20:49 | 41.23636 | -8.67253 | 258 ft | 2 kts | 82° |
| 2026-05-06 20:49 | 41.23634 | -8.67275 | 258 ft | 2 kts | 82° |
| 2026-05-06 20:49 | 41.23632 | -8.67296 | 258 ft | 2 kts | 84° |
| 2026-05-06 20:49 | 41.23631 | -8.67318 | 258 ft | 2 kts | 105° |
| 2026-05-06 20:50 | 41.23638 | -8.67331 | 259 ft | 1 kts | 174° |
| 2026-05-06 20:50 | 41.23639 | -8.67331 | 259 ft | 0 kts | 173° |
| 2026-05-06 20:53 | 41.23638 | -8.67331 | 259 ft | 1 kts | 173° |
| 2026-05-06 20:53 | 41.23588 | -8.67338 | 260 ft | 13 kts | 200° |
| 2026-05-06 20:53 | 41.23485 | -8.67386 | 262 ft | 16 kts | 172° |
| 2026-05-06 20:53 | 41.23365 | -8.67372 | 263 ft | 19 kts | 201° |
| 2026-05-06 20:54 | 41.23325 | -8.67501 | 268 ft | 14 kts | 258° |
| 2026-05-06 20:54 | 41.23303 | -8.67629 | 275 ft | 17 kts | 259° |
| 2026-05-06 20:54 | 41.23348 | -8.67745 | 276 ft | 12 kts | 345° |
| 2026-05-06 20:54 | 41.23369 | -8.67750 | 276 ft | 0 kts | 349° |
| 2026-05-06 20:55 | 41.23390 | -8.67756 | 275 ft | 14 kts | 348° |
| 2026-05-06 20:55 | 41.23810 | -8.67865 | 256 ft | 108 kts | 349° |
| 2026-05-06 20:55 | 41.24780 | -8.68125 | 449 ft | 160 kts | 348° |
| 2026-05-06 20:56 | 41.25887 | -8.68421 | 1314 ft | 165 kts | 348° |
| 2026-05-06 20:56 | 41.27035 | -8.68722 | 2043 ft | 174 kts | 349° |
| 2026-05-06 20:56 | 41.28296 | -8.69048 | 2398 ft | 196 kts | 349° |
| 2026-05-06 20:56 | 41.29723 | -8.69420 | 2775 ft | 222 kts | 349° |
| 2026-05-06 20:57 | 41.31319 | -8.69838 | 3246 ft | 246 kts | 349° |
| 2026-05-06 20:57 | 41.33041 | -8.70290 | 3995 ft | 257 kts | 349° |
| 2026-05-06 20:57 | 41.34817 | -8.70755 | 4882 ft | 263 kts | 349° |
| 2026-05-06 20:57 | 41.36640 | -8.71230 | 5755 ft | 270 kts | 349° |
| 2026-05-06 20:58 | 41.38510 | -8.71640 | 6620 ft | 276 kts | 358° |
| 2026-05-06 20:58 | 41.40407 | -8.71212 | 7408 ft | 282 kts | 24° |
| 2026-05-06 20:58 | 41.42011 | -8.69718 | 8234 ft | 285 kts | 50° |
| 2026-05-06 20:58 | 41.42971 | -8.67428 | 9090 ft | 286 kts | 76° |
| 2026-05-06 20:59 | 41.43084 | -8.64805 | 9935 ft | 286 kts | 103° |
| 2026-05-06 20:59 | 41.42335 | -8.62373 | 10715 ft | 286 kts | 128° |
| 2026-05-06 20:59 | 41.40873 | -8.60557 | 11103 ft | 303 kts | 152° |
| 2026-05-06 20:59 | 41.38807 | -8.59648 | 11353 ft | 325 kts | 167° |
| 2026-05-06 21:00 | 41.36520 | -8.58955 | 11574 ft | 347 kts | 168° |
| 2026-05-06 21:00 | 41.34094 | -8.58232 | 12131 ft | 357 kts | 168° |
| 2026-05-06 21:00 | 41.31688 | -8.57507 | 12820 ft | 362 kts | 168° |
| 2026-05-06 21:00 | 41.29188 | -8.56741 | 13554 ft | 366 kts | 168° |
| 2026-05-06 21:01 | 41.26688 | -8.55968 | 14204 ft | 371 kts | 167° |
| 2026-05-06 21:01 | 41.24161 | -8.55180 | 14824 ft | 375 kts | 167° |
| 2026-05-06 21:01 | 41.21610 | -8.54381 | 15449 ft | 379 kts | 167° |
| 2026-05-06 21:01 | 41.19065 | -8.53585 | 16063 ft | 382 kts | 167° |
| 2026-05-06 21:02 | 41.16459 | -8.52772 | 16692 ft | 386 kts | 167° |
| 2026-05-06 21:02 | 41.13880 | -8.51968 | 17296 ft | 389 kts | 168° |
| 2026-05-06 21:02 | 41.11232 | -8.51145 | 17903 ft | 392 kts | 168° |
| 2026-05-06 21:02 | 41.08563 | -8.50316 | 18467 ft | 395 kts | 168° |
| 2026-05-06 21:03 | 41.05878 | -8.49482 | 19000 ft | 398 kts | 168° |
| 2026-05-06 21:03 | 41.03173 | -8.48640 | 19528 ft | 400 kts | 168° |
| 2026-05-06 21:03 | 41.00454 | -8.47796 | 20055 ft | 402 kts | 168° |
| 2026-05-06 21:03 | 40.97724 | -8.46951 | 20576 ft | 405 kts | 168° |
| 2026-05-06 21:04 | 40.94976 | -8.46101 | 21071 ft | 407 kts | 168° |
| 2026-05-06 21:04 | 40.92213 | -8.45247 | 21588 ft | 409 kts | 168° |
| 2026-05-06 21:04 | 40.89429 | -8.44389 | 22088 ft | 412 kts | 168° |
| 2026-05-06 21:04 | 40.86632 | -8.43533 | 22567 ft | 414 kts | 168° |
| 2026-05-06 21:05 | 40.83817 | -8.42669 | 23063 ft | 416 kts | 168° |
| 2026-05-06 21:05 | 40.80988 | -8.41797 | 23524 ft | 419 kts | 168° |
| 2026-05-06 21:05 | 40.78144 | -8.40917 | 23911 ft | 421 kts | 168° |
| 2026-05-06 21:05 | 40.75282 | -8.40033 | 24303 ft | 423 kts | 168° |
| 2026-05-06 21:06 | 40.72412 | -8.39151 | 24689 ft | 425 kts | 168° |
| 2026-05-06 21:06 | 40.69526 | -8.38269 | 25086 ft | 427 kts | 168° |
| 2026-05-06 21:06 | 40.66630 | -8.37386 | 25468 ft | 428 kts | 168° |
| 2026-05-06 21:06 | 40.63720 | -8.36499 | 25839 ft | 430 kts | 168° |
| 2026-05-06 21:07 | 40.60795 | -8.35610 | 26201 ft | 432 kts | 168° |
| 2026-05-06 21:07 | 40.57861 | -8.34716 | 26543 ft | 434 kts | 169° |
| 2026-05-06 21:07 | 40.54912 | -8.33819 | 26874 ft | 436 kts | 169° |
| 2026-05-06 21:07 | 40.51950 | -8.32917 | 27233 ft | 437 kts | 169° |
| 2026-05-06 21:08 | 40.48981 | -8.32011 | 27569 ft | 439 kts | 169° |
| 2026-05-06 21:08 | 40.46003 | -8.31102 | 27898 ft | 441 kts | 169° |
| 2026-05-06 21:08 | 40.43010 | -8.30188 | 28215 ft | 443 kts | 169° |
| 2026-05-06 21:08 | 40.40004 | -8.29272 | 28530 ft | 444 kts | 169° |
| 2026-05-06 21:09 | 40.36995 | -8.28358 | 28958 ft | 443 kts | 169° |
| 2026-05-06 21:09 | 40.34001 | -8.27448 | 29427 ft | 441 kts | 169° |
| 2026-05-06 21:09 | 40.31013 | -8.26539 | 29890 ft | 440 kts | 169° |
| 2026-05-06 21:09 | 40.28039 | -8.25640 | 30293 ft | 438 kts | 169° |
| 2026-05-06 21:10 | 40.25066 | -8.24745 | 30646 ft | 438 kts | 170° |
| 2026-05-06 21:10 | 40.22101 | -8.23852 | 30997 ft | 437 kts | 170° |
| 2026-05-06 21:10 | 40.19142 | -8.22959 | 31351 ft | 436 kts | 170° |
| 2026-05-06 21:10 | 40.16184 | -8.22065 | 31697 ft | 436 kts | 170° |
| 2026-05-06 21:11 | 40.13230 | -8.21177 | 32046 ft | 435 kts | 171° |
| 2026-05-06 21:11 | 40.10278 | -8.20289 | 32396 ft | 435 kts | 171° |
| 2026-05-06 21:11 | 40.07334 | -8.19404 | 32743 ft | 435 kts | 171° |
| 2026-05-06 21:11 | 40.04385 | -8.18518 | 33097 ft | 434 kts | 171° |
| 2026-05-06 21:12 | 40.01446 | -8.17638 | 33454 ft | 434 kts | 171° |
| 2026-05-06 21:12 | 39.98505 | -8.16756 | 33811 ft | 433 kts | 171° |
| 2026-05-06 21:12 | 39.95566 | -8.15876 | 34110 ft | 433 kts | 171° |
| 2026-05-06 21:12 | 39.92629 | -8.15000 | 34392 ft | 433 kts | 171° |
| 2026-05-06 21:13 | 39.89692 | -8.14125 | 34650 ft | 434 kts | 171° |
| 2026-05-06 21:13 | 39.86742 | -8.13243 | 34868 ft | 435 kts | 171° |
| 2026-05-06 21:13 | 39.83786 | -8.12356 | 34936 ft | 437 kts | 171° |
| 2026-05-06 21:14 | 39.77840 | -8.10575 | 34938 ft | 439 kts | 171° |
| 2026-05-06 21:14 | 39.71883 | -8.08799 | 34936 ft | 439 kts | 171° |
| 2026-05-06 21:15 | 39.65919 | -8.07021 | 34931 ft | 440 kts | 171° |
| 2026-05-06 21:15 | 39.59950 | -8.05255 | 34935 ft | 440 kts | 171° |
| 2026-05-06 21:16 | 39.53989 | -8.03497 | 34921 ft | 439 kts | 171° |
| 2026-05-06 21:16 | 39.48019 | -8.01733 | 34908 ft | 440 kts | 171° |
| 2026-05-06 21:17 | 39.42049 | -7.99971 | 34908 ft | 440 kts | 171° |
| 2026-05-06 21:17 | 39.36072 | -7.98204 | 34910 ft | 441 kts | 171° |
| 2026-05-06 21:18 | 39.30084 | -7.96444 | 34903 ft | 441 kts | 171° |
| 2026-05-06 21:18 | 39.24098 | -7.94690 | 34909 ft | 442 kts | 171° |
| 2026-05-06 21:19 | 39.19115 | -7.93230 | 34913 ft | 442 kts | 171° |
| 2026-05-06 21:19 | 39.13115 | -7.91476 | 34919 ft | 442 kts | 171° |
| 2026-05-06 21:20 | 39.07104 | -7.89854 | 34902 ft | 439 kts | 176° |
| 2026-05-06 21:20 | 39.01033 | -7.88897 | 34901 ft | 439 kts | 178° |
| 2026-05-06 21:21 | 38.94952 | -7.88047 | 34906 ft | 440 kts | 178° |
| 2026-05-06 21:21 | 38.88862 | -7.87189 | 34910 ft | 440 kts | 178° |
| 2026-05-06 21:22 | 38.82770 | -7.86300 | 34899 ft | 441 kts | 178° |
| 2026-05-06 21:22 | 38.76669 | -7.85403 | 34903 ft | 441 kts | 178° |
| 2026-05-06 21:23 | 38.70560 | -7.84517 | 34908 ft | 442 kts | 178° |
| 2026-05-06 21:23 | 38.64450 | -7.83627 | 34910 ft | 442 kts | 178° |
| 2026-05-06 21:23 | 38.61392 | -7.83181 | 34770 ft | 443 kts | 178° |
| 2026-05-06 21:24 | 38.58326 | -7.82738 | 34534 ft | 443 kts | 178° |
| 2026-05-06 21:24 | 38.55259 | -7.82297 | 34298 ft | 443 kts | 178° |
| 2026-05-06 21:24 | 38.52195 | -7.81858 | 34065 ft | 443 kts | 178° |
| 2026-05-06 21:24 | 38.49132 | -7.81422 | 33606 ft | 443 kts | 178° |
| 2026-05-06 21:25 | 38.46049 | -7.80984 | 32610 ft | 445 kts | 178° |
| 2026-05-06 21:25 | 38.43018 | -7.80547 | 31903 ft | 430 kts | 178° |
| 2026-05-06 21:25 | 38.40076 | -7.80115 | 31349 ft | 423 kts | 178° |
| 2026-05-06 21:25 | 38.37163 | -7.79691 | 30753 ft | 419 kts | 178° |
| 2026-05-06 21:26 | 38.34284 | -7.79275 | 30173 ft | 415 kts | 178° |
| 2026-05-06 21:26 | 38.31426 | -7.78866 | 29538 ft | 411 kts | 178° |
| 2026-05-06 21:26 | 38.28601 | -7.78458 | 28979 ft | 406 kts | 178° |
| 2026-05-06 21:26 | 38.25817 | -7.78056 | 28425 ft | 400 kts | 178° |
| 2026-05-06 21:27 | 38.23069 | -7.77660 | 27885 ft | 395 kts | 178° |
| 2026-05-06 21:27 | 38.20349 | -7.77272 | 27343 ft | 391 kts | 178° |
| 2026-05-06 21:27 | 38.17659 | -7.76891 | 26809 ft | 387 kts | 178° |
| 2026-05-06 21:27 | 38.15000 | -7.76513 | 26278 ft | 383 kts | 177° |
| 2026-05-06 21:28 | 38.12368 | -7.76138 | 25772 ft | 379 kts | 177° |
| 2026-05-06 21:28 | 38.09762 | -7.75765 | 25271 ft | 375 kts | 177° |
| 2026-05-06 21:28 | 38.07182 | -7.75396 | 24789 ft | 371 kts | 177° |
| 2026-05-06 21:28 | 38.04628 | -7.75032 | 24309 ft | 368 kts | 177° |
| 2026-05-06 21:29 | 38.02097 | -7.74672 | 23859 ft | 364 kts | 176° |
| 2026-05-06 21:29 | 37.99590 | -7.74315 | 23388 ft | 361 kts | 176° |
| 2026-05-06 21:29 | 37.97106 | -7.73961 | 22916 ft | 357 kts | 176° |
| 2026-05-06 21:29 | 37.94655 | -7.73614 | 22493 ft | 352 kts | 176° |
| 2026-05-06 21:30 | 37.92237 | -7.73273 | 22060 ft | 347 kts | 177° |
| 2026-05-06 21:30 | 37.89848 | -7.72937 | 21655 ft | 344 kts | 177° |
| 2026-05-06 21:30 | 37.87478 | -7.72603 | 21234 ft | 342 kts | 176° |
| 2026-05-06 21:30 | 37.85121 | -7.72267 | 20814 ft | 340 kts | 176° |
| 2026-05-06 21:31 | 37.82779 | -7.71932 | 20397 ft | 338 kts | 176° |
| 2026-05-06 21:31 | 37.80451 | -7.71601 | 19960 ft | 336 kts | 176° |
| 2026-05-06 21:31 | 37.78096 | -7.71269 | 19525 ft | 349 kts | 176° |
| 2026-05-06 21:31 | 37.75658 | -7.70928 | 19058 ft | 354 kts | 176° |
| 2026-05-06 21:32 | 37.73213 | -7.70586 | 18590 ft | 353 kts | 176° |
| 2026-05-06 21:32 | 37.68346 | -7.69893 | 17599 ft | 350 kts | 176° |
| 2026-05-06 21:32 | 37.65935 | -7.69548 | 17139 ft | 348 kts | 176° |
| 2026-05-06 21:33 | 37.63536 | -7.69208 | 16685 ft | 346 kts | 176° |
| 2026-05-06 21:33 | 37.61149 | -7.68873 | 16227 ft | 344 kts | 176° |
| 2026-05-06 21:33 | 37.58947 | -7.68567 | 15808 ft | 343 kts | 176° |
| 2026-05-06 21:33 | 37.56584 | -7.68237 | 15360 ft | 341 kts | 176° |
| 2026-05-06 21:34 | 37.54234 | -7.67905 | 14910 ft | 339 kts | 175° |
| 2026-05-06 21:34 | 37.51894 | -7.67575 | 14465 ft | 338 kts | 175° |
| 2026-05-06 21:34 | 37.49566 | -7.67248 | 14017 ft | 336 kts | 175° |
| 2026-05-06 21:34 | 37.47244 | -7.66922 | 13544 ft | 335 kts | 175° |
| 2026-05-06 21:35 | 37.44904 | -7.66595 | 13058 ft | 332 kts | 176° |
| 2026-05-06 21:35 | 37.42648 | -7.66281 | 12615 ft | 329 kts | 176° |
| 2026-05-06 21:35 | 37.40381 | -7.65964 | 12153 ft | 327 kts | 175° |
| 2026-05-06 21:35 | 37.38128 | -7.65648 | 11692 ft | 324 kts | 175° |
| 2026-05-06 21:36 | 37.35894 | -7.65333 | 11235 ft | 323 kts | 174° |
| 2026-05-06 21:36 | 37.33667 | -7.65020 | 10774 ft | 321 kts | 174° |
| 2026-05-06 21:36 | 37.31448 | -7.64706 | 10335 ft | 319 kts | 174° |
| 2026-05-06 21:36 | 37.29284 | -7.64400 | 10201 ft | 307 kts | 174° |
| 2026-05-06 21:37 | 37.27206 | -7.64108 | 10073 ft | 295 kts | 174° |
| 2026-05-06 21:37 | 37.25206 | -7.63830 | 9907 ft | 285 kts | 174° |
| 2026-05-06 21:37 | 37.23248 | -7.63561 | 9743 ft | 283 kts | 174° |
| 2026-05-06 21:37 | 37.21283 | -7.63290 | 9227 ft | 281 kts | 173° |
| 2026-05-06 21:38 | 37.19339 | -7.63020 | 8500 ft | 281 kts | 173° |
| 2026-05-06 21:38 | 37.17419 | -7.62753 | 8051 ft | 270 kts | 173° |
| 2026-05-06 21:38 | 37.15625 | -7.62504 | 7907 ft | 249 kts | 172° |
| 2026-05-06 21:38 | 37.13943 | -7.62274 | 7535 ft | 240 kts | 173° |
| 2026-05-06 21:39 | 37.12291 | -7.62047 | 7017 ft | 238 kts | 172° |
| 2026-05-06 21:39 | 37.10629 | -7.61819 | 6507 ft | 236 kts | 172° |
| 2026-05-06 21:39 | 37.08998 | -7.61709 | 5959 ft | 235 kts | 181° |
| 2026-05-06 21:39 | 37.07374 | -7.62044 | 5375 ft | 238 kts | 195° |
| 2026-05-06 21:40 | 37.05869 | -7.62801 | 5095 ft | 227 kts | 203° |
| 2026-05-06 21:40 | 37.04442 | -7.63599 | 5017 ft | 220 kts | 203° |
| 2026-05-06 21:40 | 37.03088 | -7.64345 | 4921 ft | 207 kts | 203° |
| 2026-05-06 21:40 | 37.01800 | -7.65052 | 4849 ft | 204 kts | 203° |
| 2026-05-06 21:41 | 37.00491 | -7.65771 | 4741 ft | 202 kts | 203° |
| 2026-05-06 21:41 | 36.99247 | -7.66607 | 4514 ft | 205 kts | 218° |
| 2026-05-06 21:41 | 36.98316 | -7.67904 | 4324 ft | 203 kts | 240° |
| 2026-05-06 21:41 | 36.97814 | -7.69521 | 4131 ft | 199 kts | 262° |
| 2026-05-06 21:42 | 36.97804 | -7.71228 | 3902 ft | 196 kts | 281° |
| 2026-05-06 21:42 | 36.98047 | -7.72907 | 3650 ft | 197 kts | 282° |
| 2026-05-06 21:42 | 36.98292 | -7.74596 | 3404 ft | 198 kts | 282° |
| 2026-05-06 21:42 | 36.98538 | -7.76298 | 3142 ft | 199 kts | 284° |
| 2026-05-06 21:43 | 36.98784 | -7.78007 | 2870 ft | 200 kts | 284° |
| 2026-05-06 21:43 | 36.99031 | -7.79726 | 2600 ft | 201 kts | 285° |
| 2026-05-06 21:43 | 36.99276 | -7.81433 | 2350 ft | 196 kts | 285° |
| 2026-05-06 21:43 | 36.99507 | -7.83053 | 2075 ft | 182 kts | 286° |
| 2026-05-06 21:44 | 36.99720 | -7.84549 | 1838 ft | 166 kts | 287° |
| 2026-05-06 21:44 | 36.99907 | -7.85877 | 1647 ft | 144 kts | 288° |
| 2026-05-06 21:44 | 37.00077 | -7.87058 | 1444 ft | 134 kts | 288° |
| 2026-05-06 21:44 | 37.00243 | -7.88200 | 1264 ft | 133 kts | 285° |
| 2026-05-06 21:45 | 37.00404 | -7.89321 | 1090 ft | 131 kts | 285° |
| 2026-05-06 21:45 | 37.00566 | -7.90445 | 923 ft | 132 kts | 284° |
| 2026-05-06 21:45 | 37.00726 | -7.91567 | 747 ft | 130 kts | 282° |
| 2026-05-06 21:45 | 37.00883 | -7.92664 | 580 ft | 128 kts | 281° |
| 2026-05-06 21:46 | 37.01040 | -7.93761 | 405 ft | 128 kts | 280° |
| 2026-05-06 21:46 | 37.01196 | -7.94854 | 242 ft | 127 kts | 279° |
| 2026-05-06 21:46 | 37.01351 | -7.95945 | 73 ft | 127 kts | 281° |
| 2026-05-06 21:46 | 37.01493 | -7.96943 | 21 ft | 95 kts | 280° |
| 2026-05-06 21:47 | 37.01577 | -7.97542 | 19 ft | 46 kts | 280° |
| 2026-05-06 21:47 | 37.01622 | -7.97836 | 19 ft | 29 kts | 282° |
| 2026-05-06 21:47 | 37.01684 | -7.98066 | 22 ft | 28 kts | 298° |
| 2026-05-06 21:47 | 37.01803 | -7.98234 | 21 ft | 16 kts | 356° |
| 2026-05-06 21:48 | 37.01845 | -7.98135 | 20 ft | 14 kts | 98° |
| 2026-05-06 21:48 | 37.01831 | -7.98017 | 20 ft | 14 kts | 100° |
| 2026-05-06 21:48 | 37.01811 | -7.97874 | 20 ft | 19 kts | 99° |
| 2026-05-06 21:48 | 37.01786 | -7.97690 | 22 ft | 24 kts | 101° |
| 2026-05-06 21:49 | 37.01758 | -7.97482 | 20 ft | 23 kts | 84° |
| 2026-05-06 21:49 | 37.01853 | -7.97342 | 20 ft | 17 kts | 66° |
| 2026-05-06 21:49 | 37.01837 | -7.97233 | 20 ft | 16 kts | 101° |
| 2026-05-06 21:49 | 37.01812 | -7.97053 | 20 ft | 25 kts | 99° |
| 2026-05-06 21:50 | 37.01805 | -7.96885 | 20 ft | 16 kts | 53° |
| 2026-05-06 21:50 | 37.01820 | -7.96764 | 20 ft | 14 kts | 101° |
| 2026-05-06 21:50 | 37.01866 | -7.96702 | 20 ft | 11 kts | 11° |
| 2026-05-06 21:50 | 37.01898 | -7.96694 | 20 ft | 0 kts | 10° |